Time;durP1;ratioP1;P1;durP2;ratioP2;P2;SDS_P1;SDS_P2;PMS_P1;PMS_P2;Temp;Humidity;BMP_temperature;BMP_pressure;BME280_temperature;BME280_humidity;BME280_pressure;Samples;Min_cycle;Max_cycle;Signal;HPM_P1;HPM_P2
2023/01/24 00:08:33;;;;;;;0.20;0.10;;;6.00;99.90;;;;;;21212755;27;20825;-70
2023/01/24 00:18:37;;;;;;;0.20;0.10;;;5.90;99.90;;;;;;21232131;27;20449;-70
2023/01/24 00:28:42;;;;;;;0.20;0.10;;;5.90;99.90;;;;;;21197631;27;20398;-70
2023/01/24 00:38:46;;;;;;;0.20;0.00;;;5.90;99.90;;;;;;21229932;27;20564;-72
2023/01/24 00:48:51;;;;;;;0.20;0.10;;;5.80;99.90;;;;;;21211763;28;20426;-72
2023/01/24 00:58:55;;;;;;;0.20;0.10;;;5.70;99.90;;;;;;21211767;28;20494;-73
2023/01/24 01:09:01;;;;;;;0.20;0.10;;;6.00;99.90;;;;;;21229720;28;20453;-72
2023/01/24 01:19:06;;;;;;;0.20;0.10;;;6.20;99.90;;;;;;21211482;28;20446;-72
2023/01/24 01:29:11;;;;;;;0.20;0.10;;;6.30;99.90;;;;;;21209970;28;20485;-71
2023/01/24 01:39:15;;;;;;;0.20;0.10;;;6.10;99.90;;;;;;21213139;27;20457;-72
2023/01/24 01:49:25;;;;;;;0.20;0.10;;;5.90;99.90;;;;;;21225315;27;20415;-71
2023/01/24 01:59:33;;;;;;;0.20;0.10;;;5.80;99.90;;;;;;21224701;27;20475;-70
2023/01/24 02:09:41;;;;;;;0.20;0.10;;;5.30;99.90;;;;;;21223726;27;20397;-70
2023/01/24 02:20:14;;;;;;;0.20;0.10;;;5.20;99.90;;;;;;21223110;27;20497;-70
2023/01/24 02:30:19;;;;;;;0.20;0.10;;;5.20;99.90;;;;;;21205619;27;20405;-70
2023/01/24 02:40:24;;;;;;;0.20;0.10;;;5.30;99.90;;;;;;21128162;28;20475;-68
2023/01/24 02:53:28;;;;;;;0.20;0.10;;;5.40;99.90;;;;;;21153420;28;20434;-72
2023/01/24 03:00:56;;;;;;;0.20;0.10;;;5.50;99.90;;;;;;21118267;28;20483;-71
2023/01/24 03:11:02;;;;;;;0.20;0.10;;;5.50;99.90;;;;;;21214387;27;20389;-70
2023/01/24 03:41:50;;;;;;;0.20;0.10;;;5.60;99.90;;;;;;21143524;28;20465;-68
2023/01/24 04:02:17;;;;;;;0.20;0.10;;;5.30;99.90;;;;;;21147154;28;20467;-70
2023/01/24 04:12:22;;;;;;;0.20;0.10;;;5.10;99.90;;;;;;21129278;28;20974;-69
2023/01/24 04:22:26;;;;;;;0.20;0.10;;;5.10;99.90;;;;;;21127696;28;20469;-68
2023/01/24 04:32:31;;;;;;;0.20;0.10;;;4.60;99.90;;;;;;21154281;27;20392;-69
2023/01/24 04:42:35;;;;;;;0.20;0.10;;;4.60;99.90;;;;;;21211897;27;20434;-69
2023/01/24 04:52:40;;;;;;;0.20;0.10;;;4.40;99.90;;;;;;21230016;28;20436;-69
2023/01/24 05:02:44;;;;;;;0.20;0.10;;;4.40;99.90;;;;;;21229024;28;20408;-70
2023/01/24 05:12:50;;;;;;;0.20;0.10;;;4.40;99.90;;;;;;21195832;27;20393;-72
2023/01/24 05:22:56;;;;;;;0.20;0.10;;;4.40;99.90;;;;;;21245133;27;20959;-70
2023/01/24 05:33:01;;;;;;;0.20;0.10;;;4.30;99.90;;;;;;21208734;27;20393;-70
2023/01/24 05:43:07;;;;;;;0.20;0.10;;;4.40;99.90;;;;;;21243875;27;20883;-71
2023/01/24 05:53:12;;;;;;;0.20;0.10;;;4.50;99.90;;;;;;21207312;27;20508;-71
2023/01/24 06:03:16;;;;;;;0.20;0.10;;;4.40;99.90;;;;;;21242886;27;20458;-71
2023/01/24 06:13:21;;;;;;;0.20;0.10;;;4.30;99.90;;;;;;21218892;27;20737;-69
2023/01/24 06:23:27;;;;;;;0.20;0.10;;;4.30;99.90;;;;;;21151986;28;20422;-66
2023/01/24 06:33:44;;;;;;;0.20;0.10;;;4.50;99.90;;;;;;21154299;28;20419;-71
2023/01/24 06:43:50;;;;;;;0.20;0.10;;;4.60;99.90;;;;;;21132930;28;20457;-70
2023/01/24 06:53:55;;;;;;;0.20;0.10;;;4.60;99.90;;;;;;21132731;28;20505;-70
2023/01/24 07:04:00;;;;;;;0.20;0.10;;;4.80;99.90;;;;;;21127635;28;20399;-70
2023/01/24 07:14:05;;;;;;;0.20;0.10;;;4.90;99.90;;;;;;21208228;27;20440;-71
2023/01/24 07:24:14;;;;;;;0.20;0.10;;;4.90;99.90;;;;;;21234124;27;20451;-72
2023/01/24 07:34:19;;;;;;;0.20;0.10;;;4.90;99.90;;;;;;21214081;27;20409;-72
2023/01/24 07:44:23;;;;;;;0.20;0.10;;;5.10;99.90;;;;;;21214701;27;20502;-68
2023/01/24 07:54:28;;;;;;;0.20;0.10;;;5.30;99.90;;;;;;21229874;27;21014;-70
2023/01/24 08:04:32;;;;;;;0.20;0.10;;;5.70;99.90;;;;;;21230708;27;20892;-69
2023/01/24 08:14:39;;;;;;;0.20;0.10;;;5.90;99.90;;;;;;21231323;27;20451;-72
2023/01/24 08:24:43;;;;;;;0.20;0.10;;;6.10;99.90;;;;;;21229762;27;20825;-69
2023/01/24 08:34:49;;;;;;;0.20;0.10;;;6.20;99.90;;;;;;21194067;27;20520;-71
2023/01/24 08:44:52;;;;;;;0.20;0.10;;;6.10;99.90;;;;;;21228682;27;20456;-71
2023/01/24 08:54:58;;;;;;;0.20;0.10;;;6.20;99.90;;;;;;21227189;27;20501;-73
2023/01/24 09:05:02;;;;;;;0.20;0.10;;;6.20;99.90;;;;;;21208669;28;20457;-70
2023/01/24 09:15:08;;;;;;;0.20;0.10;;;6.40;99.90;;;;;;21228183;28;20504;-71
2023/01/24 09:25:12;;;;;;;0.20;0.10;;;6.50;99.90;;;;;;21183660;27;20714;-70
2023/01/24 09:35:18;;;;;;;0.20;0.10;;;6.50;99.90;;;;;;21153367;27;20429;-69
2023/01/24 09:45:27;;;;;;;0.20;0.10;;;6.70;99.90;;;;;;21143435;28;20398;-71
2023/01/24 09:55:35;;;;;;;0.20;0.10;;;6.40;99.90;;;;;;21159286;27;20775;-71
2023/01/24 10:05:41;;;;;;;0.20;0.10;;;5.80;99.90;;;;;;21177897;27;21046;-68
2023/01/24 10:15:53;;;;;;;0.20;0.10;;;5.70;99.90;;;;;;21171760;27;20470;-73
2023/01/24 10:26:02;;;;;;;0.20;0.10;;;6.10;99.90;;;;;;21193410;27;20508;-71
2023/01/24 10:36:12;;;;;;;0.20;0.10;;;5.90;99.90;;;;;;21135954;28;20466;-70
2023/01/24 10:46:43;;;;;;;0.20;0.10;;;5.60;99.90;;;;;;21196597;27;20403;-72
2023/01/24 10:56:48;;;;;;;0.20;0.10;;;5.60;99.90;;;;;;21194836;27;20906;-72
2023/01/24 11:06:53;;;;;;;0.20;0.10;;;5.30;99.90;;;;;;21235025;27;20824;-68
2023/01/24 11:17:01;;;;;;;0.20;0.10;;;5.20;99.90;;;;;;21212935;27;20393;-69
2023/01/24 11:27:13;;;;;;;0.20;0.10;;;5.30;99.90;;;;;;21232035;27;20417;-71
2023/01/24 11:37:33;;;;;;;0.20;0.10;;;5.10;99.90;;;;;;21209701;27;20556;-71
2023/01/24 11:47:44;;;;;;;0.20;0.10;;;5.20;99.90;;;;;;21229546;27;20413;-72
2023/01/24 11:57:58;;;;;;;0.20;0.10;;;5.20;99.90;;;;;;21229628;27;20445;-70
2023/01/24 12:08:21;;;;;;;0.20;0.10;;;5.30;99.90;;;;;;21228746;27;20427;-70
2023/01/24 12:18:40;;;;;;;0.20;0.10;;;5.40;99.90;;;;;;21210718;27;20781;-71
2023/01/24 12:28:51;;;;;;;0.20;0.10;;;5.20;99.90;;;;;;21208171;27;20774;-72
2023/01/24 12:39:00;;;;;;;0.20;0.10;;;5.30;99.90;;;;;;21189542;27;20392;-71
2023/01/24 12:49:12;;;;;;;0.20;0.10;;;5.70;99.90;;;;;;21208139;27;20457;-70
2023/01/24 12:59:25;;;;;;;0.20;0.10;;;5.60;99.90;;;;;;21210177;28;20477;-71
2023/01/24 13:09:35;;;;;;;0.20;0.10;;;5.60;99.90;;;;;;21217616;28;20453;-70
2023/01/24 13:19:59;;;;;;;0.20;0.10;;;5.70;99.90;;;;;;21158834;28;20406;-70
2023/01/24 13:30:19;;;;;;;0.20;0.10;;;5.80;99.90;;;;;;21228076;28;20868;-71
2023/01/24 13:40:30;;;;;;;0.20;0.10;;;5.80;99.90;;;;;;21217479;27;20857;-69
2023/01/24 13:50:34;;;;;;;0.20;0.10;;;6.30;99.90;;;;;;21242906;27;20454;-71
2023/01/24 14:00:49;;;;;;;0.20;0.10;;;6.80;99.90;;;;;;21223949;27;20432;-70
2023/01/24 14:11:25;;;;;;;0.20;0.10;;;7.10;99.90;;;;;;21197819;27;20456;-70
2023/01/24 14:21:34;;;;;;;0.20;0.10;;;7.10;99.90;;;;;;21154671;28;20391;-72
2023/01/24 14:31:40;;;;;;;0.20;0.10;;;7.00;99.90;;;;;;21133364;28;20493;-70
2023/01/24 14:41:47;;;;;;;0.20;0.10;;;7.30;99.90;;;;;;21156136;27;20450;-71
2023/01/24 14:51:51;;;;;;;0.20;0.10;;;7.20;99.90;;;;;;21213372;27;20393;-70
2023/01/24 15:01:56;;;;;;;0.20;0.10;;;7.60;99.90;;;;;;21212886;27;21002;-69
2023/01/24 15:12:13;;;;;;;0.20;0.10;;;7.80;99.90;;;;;;21210170;27;20400;-71
2023/01/24 15:22:22;;;;;;;0.20;0.10;;;8.00;99.90;;;;;;21221216;27;20409;-71
2023/01/24 15:32:41;;;;;;;0.20;0.10;;;7.40;99.90;;;;;;21171716;27;20487;-67
2023/01/24 15:53:24;;;;;;;0.20;0.10;;;7.90;99.90;;;;;;21166388;27;20472;-71
2023/01/24 16:03:29;;;;;;;0.20;0.10;;;8.00;99.90;;;;;;21170439;27;20411;-72
2023/01/24 16:13:38;;;;;;;0.20;0.10;;;8.10;99.90;;;;;;21172318;27;20478;-71
2023/01/24 16:23:43;;;;;;;0.20;0.10;;;8.20;99.90;;;;;;21172708;27;20498;-72
2023/01/24 16:33:47;;;;;;;0.20;0.10;;;8.10;99.90;;;;;;21209454;27;20393;-71
2023/01/24 16:43:52;;;;;;;0.20;0.10;;;7.90;99.90;;;;;;21229651;27;20798;-72
2023/01/24 16:53:56;;;;;;;0.20;0.10;;;8.20;99.90;;;;;;21231057;27;20390;-73
2023/01/24 17:04:03;;;;;;;0.20;0.10;;;8.10;99.90;;;;;;21208219;28;20407;-72
2023/01/24 17:14:07;;;;;;;0.20;0.10;;;8.40;99.90;;;;;;21202964;27;21019;-71
2023/01/24 17:24:13;;;;;;;0.20;0.10;;;7.90;99.90;;;;;;21243890;27;20492;-72
2023/01/24 17:34:16;;;;;;;0.20;0.10;;;8.00;99.90;;;;;;21227260;27;20488;-72
2023/01/24 17:44:22;;;;;;;0.20;0.10;;;8.00;99.90;;;;;;21203751;27;20406;-70
2023/01/24 17:54:26;;;;;;;0.20;0.10;;;7.90;99.90;;;;;;21229581;27;20498;-73
2023/01/24 18:04:31;;;;;;;0.20;0.10;;;7.90;99.90;;;;;;21158328;27;20425;-73
2023/01/24 18:14:36;;;;;;;0.20;0.10;;;7.80;99.90;;;;;;21155160;28;20401;-73
2023/01/24 18:24:42;;;;;;;0.20;0.10;;;7.90;99.90;;;;;;21165931;27;20400;-74
2023/01/24 18:34:46;;;;;;;0.20;0.10;;;8.20;99.90;;;;;;21203604;27;20462;-72
2023/01/24 18:44:52;;;;;;;0.20;0.10;;;8.40;99.90;;;;;;21202986;27;20405;-71
2023/01/24 18:54:56;;;;;;;0.20;0.10;;;8.30;99.90;;;;;;21214561;27;20393;-72
2023/01/24 19:05:04;;;;;;;0.20;0.10;;;8.10;99.90;;;;;;21215059;27;20495;-72
2023/01/24 19:15:09;;;;;;;0.20;0.10;;;8.00;99.90;;;;;;21231124;27;20457;-71
2023/01/24 19:25:14;;;;;;;0.20;0.10;;;8.10;99.90;;;;;;21197004;27;20404;-71
2023/01/24 19:35:22;;;;;;;0.20;0.10;;;8.10;99.90;;;;;;21126542;27;20447;-70
2023/01/24 19:45:27;;;;;;;0.20;0.10;;;8.10;99.90;;;;;;21084960;27;20733;-71
2023/01/24 19:55:34;;;;;;;0.20;0.10;;;8.10;99.90;;;;;;21138446;27;20395;-72
2023/01/24 20:05:39;;;;;;;0.20;0.10;;;8.00;99.90;;;;;;21125046;28;20410;-70
2023/01/24 20:15:43;;;;;;;0.20;0.10;;;8.10;99.90;;;;;;21148149;27;20754;-70
2023/01/24 20:25:48;;;;;;;0.20;0.10;;;7.90;99.90;;;;;;21181632;27;20408;-72
2023/01/24 20:35:59;;;;;;;0.20;0.10;;;7.50;99.90;;;;;;21169648;27;20402;-71
2023/01/24 20:46:07;;;;;;;0.20;0.10;;;7.50;99.90;;;;;;21176505;27;20421;-70
2023/01/24 20:56:13;;;;;;;0.20;0.10;;;7.60;99.90;;;;;;21187017;28;20397;-71
2023/01/24 21:06:19;;;;;;;0.20;0.10;;;7.20;99.90;;;;;;21206701;28;20411;-70
2023/01/24 21:16:25;;;;;;;0.20;0.10;;;7.30;99.90;;;;;;21225793;28;20385;-71
2023/01/24 21:26:31;;;;;;;0.20;0.10;;;7.40;99.90;;;;;;21193982;28;20790;-72
2023/01/24 21:36:36;;;;;;;0.20;0.10;;;7.80;99.90;;;;;;21219898;28;20397;-74
2023/01/24 21:46:41;;;;;;;0.20;0.10;;;8.10;99.90;;;;;;21190979;28;20973;-72
2023/01/24 22:07:10;;;;;;;0.20;0.10;;;8.30;99.90;;;;;;21204990;27;20408;-72
2023/01/24 22:17:18;;;;;;;0.20;0.10;;;8.30;99.90;;;;;;21238447;27;20740;-72
2023/01/24 22:27:23;;;;;;;0.20;0.10;;;8.40;99.90;;;;;;21211888;27;20418;-72
2023/01/24 22:37:29;;;;;;;0.20;0.10;;;8.30;99.90;;;;;;21177899;27;20739;-72
2023/01/24 22:47:35;;;;;;;0.20;0.10;;;8.50;99.90;;;;;;21193273;27;20651;-72
2023/01/24 22:57:38;;;;;;;0.20;0.10;;;8.50;99.90;;;;;;21158867;27;20392;-71
2023/01/24 23:07:44;;;;;;;0.20;0.10;;;8.50;99.90;;;;;;21183231;27;20443;-73
2023/01/24 23:17:51;;;;;;;0.20;0.10;;;8.80;99.90;;;;;;21140671;28;20841;-71
2023/01/24 23:27:56;;;;;;;0.20;0.10;;;8.90;99.90;;;;;;21210748;27;20445;-72
2023/01/24 23:38:00;;;;;;;0.20;0.10;;;8.90;99.90;;;;;;21236053;27;20450;-71
2023/01/24 23:48:05;;;;;;;0.20;0.10;;;8.80;99.90;;;;;;21217620;27;20393;-72
2023/01/24 23:58:09;;;;;;;0.20;0.10;;;8.60;99.90;;;;;;21235715;27;20401;-72
